sensor_id;sensor_type;location;lat;lon;timestamp;temperature;humidity
7000;DHT22;3540;53.242;10.408;2023-07-09T00:00:47;19.70;1.00
7000;DHT22;3540;53.242;10.408;2023-07-09T00:03:14;19.70;1.00
7000;DHT22;3540;53.242;10.408;2023-07-09T00:05:41;19.60;1.00
7000;DHT22;3540;53.242;10.408;2023-07-09T00:08:30;19.60;1.00
7000;DHT22;3540;53.242;10.408;2023-07-09T00:10:57;19.60;1.00
7000;DHT22;3540;53.242;10.408;2023-07-09T00:13:25;19.60;1.00
7000;DHT22;3540;53.242;10.408;2023-07-09T00:15:51;19.50;24.80
7000;DHT22;3540;53.242;10.408;2023-07-09T00:18:20;19.50;1.00
7000;DHT22;3540;53.242;10.408;2023-07-09T00:20:48;19.40;99.90
7000;DHT22;3540;53.242;10.408;2023-07-09T00:23:14;19.40;99.90
7000;DHT22;3540;53.242;10.408;2023-07-09T00:25:43;19.30;99.90
7000;DHT22;3540;53.242;10.408;2023-07-09T00:28:16;19.20;99.90
7000;DHT22;3540;53.242;10.408;2023-07-09T00:30:44;19.20;99.90
7000;DHT22;3540;53.242;10.408;2023-07-09T00:33:14;19.20;1.00
7000;DHT22;3540;53.242;10.408;2023-07-09T00:35:45;19.20;1.00
7000;DHT22;3540;53.242;10.408;2023-07-09T00:38:17;19.20;1.00
7000;DHT22;3540;53.242;10.408;2023-07-09T00:41:03;19.30;99.90
7000;DHT22;3540;53.242;10.408;2023-07-09T00:43:36;19.30;1.00
7000;DHT22;3540;53.242;10.408;2023-07-09T00:47:11;19.30;99.90
7000;DHT22;3540;53.242;10.408;2023-07-09T00:49:06;19.30;1.00
7000;DHT22;3540;53.242;10.408;2023-07-09T00:51:41;19.20;1.00
7000;DHT22;3540;53.242;10.408;2023-07-09T00:57:17;19.10;58.80
7000;DHT22;3540;53.242;10.408;2023-07-09T00:59:51;19.10;1.00
7000;DHT22;3540;53.242;10.408;2023-07-09T01:02:19;19.10;99.90
7000;DHT22;3540;53.242;10.408;2023-07-09T01:04:51;19.00;1.00
7000;DHT22;3540;53.242;10.408;2023-07-09T01:07:18;18.90;1.00
7000;DHT22;3540;53.242;10.408;2023-07-09T01:09:45;18.90;1.00
7000;DHT22;3540;53.242;10.408;2023-07-09T01:12:11;18.90;1.00
7000;DHT22;3540;53.242;10.408;2023-07-09T01:14:38;18.80;1.00
7000;DHT22;3540;53.242;10.408;2023-07-09T01:17:05;18.80;99.90
7000;DHT22;3540;53.242;10.408;2023-07-09T01:19:39;18.70;1.00
7000;DHT22;3540;53.242;10.408;2023-07-09T01:22:10;18.60;1.00
7000;DHT22;3540;53.242;10.408;2023-07-09T01:25:09;18.60;1.00
7000;DHT22;3540;53.242;10.408;2023-07-09T01:30:07;18.50;99.90
7000;DHT22;3540;53.242;10.408;2023-07-09T01:32:33;18.40;99.90
7000;DHT22;3540;53.242;10.408;2023-07-09T01:35:01;18.30;99.90
7000;DHT22;3540;53.242;10.408;2023-07-09T01:37:31;18.30;1.00
7000;DHT22;3540;53.242;10.408;2023-07-09T01:39:57;18.20;1.00
7000;DHT22;3540;53.242;10.408;2023-07-09T01:42:24;18.20;1.00
7000;DHT22;3540;53.242;10.408;2023-07-09T01:44:53;18.10;1.00
7000;DHT22;3540;53.242;10.408;2023-07-09T01:47:20;18.10;1.00
7000;DHT22;3540;53.242;10.408;2023-07-09T01:49:46;18.00;1.00
7000;DHT22;3540;53.242;10.408;2023-07-09T01:52:14;18.00;1.00
7000;DHT22;3540;53.242;10.408;2023-07-09T01:54:42;18.00;1.00
7000;DHT22;3540;53.242;10.408;2023-07-09T01:57:20;17.90;1.00
7000;DHT22;3540;53.242;10.408;2023-07-09T01:59:49;17.90;1.00
7000;DHT22;3540;53.242;10.408;2023-07-09T02:02:16;17.90;1.00
7000;DHT22;3540;53.242;10.408;2023-07-09T02:04:46;17.90;1.00
7000;DHT22;3540;53.242;10.408;2023-07-09T02:07:12;17.90;1.00
7000;DHT22;3540;53.242;10.408;2023-07-09T02:09:38;17.80;10.50
7000;DHT22;3540;53.242;10.408;2023-07-09T02:12:04;17.70;76.50
7000;DHT22;3540;53.242;10.408;2023-07-09T02:14:29;17.70;99.90
7000;DHT22;3540;53.242;10.408;2023-07-09T02:16:55;17.70;99.90
7000;DHT22;3540;53.242;10.408;2023-07-09T02:19:21;17.70;99.90
7000;DHT22;3540;53.242;10.408;2023-07-09T02:21:47;17.60;99.90
7000;DHT22;3540;53.242;10.408;2023-07-09T02:24:13;17.60;99.90
7000;DHT22;3540;53.242;10.408;2023-07-09T02:26:39;17.50;99.90
7000;DHT22;3540;53.242;10.408;2023-07-09T02:29:05;17.50;99.90
7000;DHT22;3540;53.242;10.408;2023-07-09T02:31:30;17.50;99.90
7000;DHT22;3540;53.242;10.408;2023-07-09T02:33:56;17.50;99.90
7000;DHT22;3540;53.242;10.408;2023-07-09T02:36:24;17.40;99.90
7000;DHT22;3540;53.242;10.408;2023-07-09T02:38:50;17.30;99.90
7000;DHT22;3540;53.242;10.408;2023-07-09T02:41:16;17.30;99.90
7000;DHT22;3540;53.242;10.408;2023-07-09T02:43:43;17.30;99.90
7000;DHT22;3540;53.242;10.408;2023-07-09T02:46:09;17.20;99.90
7000;DHT22;3540;53.242;10.408;2023-07-09T02:48:35;17.20;99.90
7000;DHT22;3540;53.242;10.408;2023-07-09T02:51:00;17.20;99.90
7000;DHT22;3540;53.242;10.408;2023-07-09T02:53:27;17.10;99.90
7000;DHT22;3540;53.242;10.408;2023-07-09T02:55:53;17.10;99.90
7000;DHT22;3540;53.242;10.408;2023-07-09T02:58:18;17.10;99.90
7000;DHT22;3540;53.242;10.408;2023-07-09T03:00:44;17.00;99.90
7000;DHT22;3540;53.242;10.408;2023-07-09T03:03:19;17.00;99.90
7000;DHT22;3540;53.242;10.408;2023-07-09T03:05:47;17.00;99.90
7000;DHT22;3540;53.242;10.408;2023-07-09T03:08:14;17.00;99.90
7000;DHT22;3540;53.242;10.408;2023-07-09T03:10:41;16.90;99.90
7000;DHT22;3540;53.242;10.408;2023-07-09T03:13:06;16.90;99.90
7000;DHT22;3540;53.242;10.408;2023-07-09T03:15:32;16.90;99.90
7000;DHT22;3540;53.242;10.408;2023-07-09T03:17:58;16.80;99.90
7000;DHT22;3540;53.242;10.408;2023-07-09T03:20:23;16.80;99.90
7000;DHT22;3540;53.242;10.408;2023-07-09T03:22:50;16.80;99.90
7000;DHT22;3540;53.242;10.408;2023-07-09T03:25:16;16.80;99.90
7000;DHT22;3540;53.242;10.408;2023-07-09T03:27:42;16.70;99.90
7000;DHT22;3540;53.242;10.408;2023-07-09T03:30:10;16.70;99.90
7000;DHT22;3540;53.242;10.408;2023-07-09T03:32:35;16.80;99.90
7000;DHT22;3540;53.242;10.408;2023-07-09T03:35:04;16.80;99.90
7000;DHT22;3540;53.242;10.408;2023-07-09T03:37:29;16.80;99.90
7000;DHT22;3540;53.242;10.408;2023-07-09T03:39:55;16.70;99.90
7000;DHT22;3540;53.242;10.408;2023-07-09T03:42:21;16.70;99.90
7000;DHT22;3540;53.242;10.408;2023-07-09T03:44:47;16.70;99.90
7000;DHT22;3540;53.242;10.408;2023-07-09T03:47:13;16.70;99.90
7000;DHT22;3540;53.242;10.408;2023-07-09T03:49:38;16.80;99.90
7000;DHT22;3540;53.242;10.408;2023-07-09T03:52:07;16.80;99.90
7000;DHT22;3540;53.242;10.408;2023-07-09T03:54:33;16.80;99.90
7000;DHT22;3540;53.242;10.408;2023-07-09T03:56:58;16.80;99.90
7000;DHT22;3540;53.242;10.408;2023-07-09T03:59:24;16.80;99.90
7000;DHT22;3540;53.242;10.408;2023-07-09T04:01:51;16.90;99.90
7000;DHT22;3540;53.242;10.408;2023-07-09T04:04:17;16.90;99.90
7000;DHT22;3540;53.242;10.408;2023-07-09T04:06:46;16.90;99.90
7000;DHT22;3540;53.242;10.408;2023-07-09T04:09:14;17.00;99.90
7000;DHT22;3540;53.242;10.408;2023-07-09T04:11:40;16.90;99.90
7000;DHT22;3540;53.242;10.408;2023-07-09T04:14:05;17.00;99.90
7000;DHT22;3540;53.242;10.408;2023-07-09T04:16:32;16.90;99.90
7000;DHT22;3540;53.242;10.408;2023-07-09T04:18:58;17.00;99.90
7000;DHT22;3540;53.242;10.408;2023-07-09T04:21:23;17.00;99.90
7000;DHT22;3540;53.242;10.408;2023-07-09T04:23:49;17.10;99.90
7000;DHT22;3540;53.242;10.408;2023-07-09T04:26:15;17.10;99.90
7000;DHT22;3540;53.242;10.408;2023-07-09T04:28:40;17.10;99.90
7000;DHT22;3540;53.242;10.408;2023-07-09T04:31:06;17.20;99.90
7000;DHT22;3540;53.242;10.408;2023-07-09T04:33:32;17.30;99.90
7000;DHT22;3540;53.242;10.408;2023-07-09T04:36:01;17.30;99.90
7000;DHT22;3540;53.242;10.408;2023-07-09T04:38:27;17.30;99.90
7000;DHT22;3540;53.242;10.408;2023-07-09T04:40:52;17.40;99.90
7000;DHT22;3540;53.242;10.408;2023-07-09T04:43:19;17.40;99.90
7000;DHT22;3540;53.242;10.408;2023-07-09T04:45:45;17.50;99.90
7000;DHT22;3540;53.242;10.408;2023-07-09T04:48:11;17.60;99.90
7000;DHT22;3540;53.242;10.408;2023-07-09T04:50:37;17.70;99.90
7000;DHT22;3540;53.242;10.408;2023-07-09T04:53:03;17.70;99.90
7000;DHT22;3540;53.242;10.408;2023-07-09T04:55:30;17.80;99.90
7000;DHT22;3540;53.242;10.408;2023-07-09T04:57:56;17.90;99.90
7000;DHT22;3540;53.242;10.408;2023-07-09T05:00:24;18.00;99.90
7000;DHT22;3540;53.242;10.408;2023-07-09T05:02:50;18.10;99.90
7000;DHT22;3540;53.242;10.408;2023-07-09T05:05:17;18.20;99.90
7000;DHT22;3540;53.242;10.408;2023-07-09T05:07:43;18.20;99.90
7000;DHT22;3540;53.242;10.408;2023-07-09T05:10:09;18.30;99.90
7000;DHT22;3540;53.242;10.408;2023-07-09T05:12:35;18.40;99.90
7000;DHT22;3540;53.242;10.408;2023-07-09T05:15:01;18.50;99.90
7000;DHT22;3540;53.242;10.408;2023-07-09T05:17:27;18.60;99.90
7000;DHT22;3540;53.242;10.408;2023-07-09T05:19:53;18.70;99.90
7000;DHT22;3540;53.242;10.408;2023-07-09T05:22:18;18.80;99.90
7000;DHT22;3540;53.242;10.408;2023-07-09T05:24:44;18.90;99.90
7000;DHT22;3540;53.242;10.408;2023-07-09T05:27:10;19.00;99.90
7000;DHT22;3540;53.242;10.408;2023-07-09T05:29:35;19.10;99.90
7000;DHT22;3540;53.242;10.408;2023-07-09T05:32:03;19.20;99.90
7000;DHT22;3540;53.242;10.408;2023-07-09T05:34:29;19.30;99.90
7000;DHT22;3540;53.242;10.408;2023-07-09T05:36:55;19.40;99.90
7000;DHT22;3540;53.242;10.408;2023-07-09T05:39:20;19.50;99.90
7000;DHT22;3540;53.242;10.408;2023-07-09T05:41:46;19.50;99.90
7000;DHT22;3540;53.242;10.408;2023-07-09T05:44:46;19.60;99.90
7000;DHT22;3540;53.242;10.408;2023-07-09T05:47:12;19.70;99.90
7000;DHT22;3540;53.242;10.408;2023-07-09T05:49:38;19.80;99.90
7000;DHT22;3540;53.242;10.408;2023-07-09T05:52:05;19.90;99.90
7000;DHT22;3540;53.242;10.408;2023-07-09T05:54:31;20.00;99.90
7000;DHT22;3540;53.242;10.408;2023-07-09T05:56:57;20.10;99.90
7000;DHT22;3540;53.242;10.408;2023-07-09T05:59:23;20.20;99.90
7000;DHT22;3540;53.242;10.408;2023-07-09T06:01:48;20.30;99.90
7000;DHT22;3540;53.242;10.408;2023-07-09T06:04:14;20.40;99.90
7000;DHT22;3540;53.242;10.408;2023-07-09T06:06:41;20.50;99.90
7000;DHT22;3540;53.242;10.408;2023-07-09T06:09:08;20.60;99.90
7000;DHT22;3540;53.242;10.408;2023-07-09T06:11:34;20.70;99.90
7000;DHT22;3540;53.242;10.408;2023-07-09T06:14:00;20.80;99.90
7000;DHT22;3540;53.242;10.408;2023-07-09T06:16:26;21.00;99.90
7000;DHT22;3540;53.242;10.408;2023-07-09T06:18:52;21.10;99.90
7000;DHT22;3540;53.242;10.408;2023-07-09T06:21:18;21.20;99.90
7000;DHT22;3540;53.242;10.408;2023-07-09T06:23:46;21.20;99.90
7000;DHT22;3540;53.242;10.408;2023-07-09T06:26:12;21.20;99.90
7000;DHT22;3540;53.242;10.408;2023-07-09T06:28:37;21.40;99.90
7000;DHT22;3540;53.242;10.408;2023-07-09T06:31:03;21.50;99.90
7000;DHT22;3540;53.242;10.408;2023-07-09T06:33:29;21.60;99.90
7000;DHT22;3540;53.242;10.408;2023-07-09T06:35:57;21.70;99.90
7000;DHT22;3540;53.242;10.408;2023-07-09T06:38:23;21.90;99.90
7000;DHT22;3540;53.242;10.408;2023-07-09T06:40:50;22.00;99.90
7000;DHT22;3540;53.242;10.408;2023-07-09T06:43:16;22.10;99.90
7000;DHT22;3540;53.242;10.408;2023-07-09T06:48:15;22.40;99.90
7000;DHT22;3540;53.242;10.408;2023-07-09T06:50:41;22.40;99.90
7000;DHT22;3540;53.242;10.408;2023-07-09T06:53:07;22.40;99.90
7000;DHT22;3540;53.242;10.408;2023-07-09T06:55:33;22.50;99.90
7000;DHT22;3540;53.242;10.408;2023-07-09T06:57:59;22.50;99.90
7000;DHT22;3540;53.242;10.408;2023-07-09T07:00:24;22.70;99.90
7000;DHT22;3540;53.242;10.408;2023-07-09T07:02:50;22.90;99.90
7000;DHT22;3540;53.242;10.408;2023-07-09T07:05:16;23.10;99.90
7000;DHT22;3540;53.242;10.408;2023-07-09T07:07:43;23.20;99.90
7000;DHT22;3540;53.242;10.408;2023-07-09T07:10:09;23.40;99.90
7000;DHT22;3540;53.242;10.408;2023-07-09T07:12:44;23.40;99.90
7000;DHT22;3540;53.242;10.408;2023-07-09T07:15:10;23.50;99.90
7000;DHT22;3540;53.242;10.408;2023-07-09T07:17:37;23.70;99.90
7000;DHT22;3540;53.242;10.408;2023-07-09T07:20:03;23.80;99.90
7000;DHT22;3540;53.242;10.408;2023-07-09T07:22:28;23.80;99.90
7000;DHT22;3540;53.242;10.408;2023-07-09T07:24:54;23.90;99.90
7000;DHT22;3540;53.242;10.408;2023-07-09T07:27:19;24.00;99.90
7000;DHT22;3540;53.242;10.408;2023-07-09T07:29:45;24.00;99.90
7000;DHT22;3540;53.242;10.408;2023-07-09T07:32:11;24.00;99.90
7000;DHT22;3540;53.242;10.408;2023-07-09T07:34:37;24.10;99.90
7000;DHT22;3540;53.242;10.408;2023-07-09T07:37:02;24.40;99.90
7000;DHT22;3540;53.242;10.408;2023-07-09T07:39:28;24.50;99.90
7000;DHT22;3540;53.242;10.408;2023-07-09T07:41:54;24.50;99.90
7000;DHT22;3540;53.242;10.408;2023-07-09T07:44:21;24.50;99.90
7000;DHT22;3540;53.242;10.408;2023-07-09T07:46:47;24.70;99.90
7000;DHT22;3540;53.242;10.408;2023-07-09T07:49:13;24.80;99.90
7000;DHT22;3540;53.242;10.408;2023-07-09T07:51:39;24.90;99.90
7000;DHT22;3540;53.242;10.408;2023-07-09T07:54:05;25.10;99.90
7000;DHT22;3540;53.242;10.408;2023-07-09T07:56:31;25.40;99.90
7000;DHT22;3540;53.242;10.408;2023-07-09T07:58:57;25.60;99.90
7000;DHT22;3540;53.242;10.408;2023-07-09T08:01:23;25.70;99.90
7000;DHT22;3540;53.242;10.408;2023-07-09T08:03:49;25.50;99.90
7000;DHT22;3540;53.242;10.408;2023-07-09T08:06:14;25.50;99.90
7000;DHT22;3540;53.242;10.408;2023-07-09T08:08:40;25.70;99.90
7000;DHT22;3540;53.242;10.408;2023-07-09T08:11:06;26.00;99.90
7000;DHT22;3540;53.242;10.408;2023-07-09T08:13:37;26.00;99.90
7000;DHT22;3540;53.242;10.408;2023-07-09T08:16:04;26.10;99.90
7000;DHT22;3540;53.242;10.408;2023-07-09T08:18:30;26.10;99.90
7000;DHT22;3540;53.242;10.408;2023-07-09T08:20:55;26.10;99.90
7000;DHT22;3540;53.242;10.408;2023-07-09T08:23:21;26.40;99.90
7000;DHT22;3540;53.242;10.408;2023-07-09T08:25:57;26.40;99.90
7000;DHT22;3540;53.242;10.408;2023-07-09T08:28:24;26.40;99.90
7000;DHT22;3540;53.242;10.408;2023-07-09T08:30:53;26.40;99.90
7000;DHT22;3540;53.242;10.408;2023-07-09T08:33:19;26.70;99.90
7000;DHT22;3540;53.242;10.408;2023-07-09T08:35:45;26.50;99.90
7000;DHT22;3540;53.242;10.408;2023-07-09T08:38:10;26.30;99.90
7000;DHT22;3540;53.242;10.408;2023-07-09T08:40:40;26.50;99.90
7000;DHT22;3540;53.242;10.408;2023-07-09T08:44:08;26.90;99.90
7000;DHT22;3540;53.242;10.408;2023-07-09T08:46:16;27.30;99.90
7000;DHT22;3540;53.242;10.408;2023-07-09T08:48:47;27.40;99.90
7000;DHT22;3540;53.242;10.408;2023-07-09T08:56:17;27.30;99.90
7000;DHT22;3540;53.242;10.408;2023-07-09T08:58:43;27.20;99.90
7000;DHT22;3540;53.242;10.408;2023-07-09T09:01:18;27.50;99.90
7000;DHT22;3540;53.242;10.408;2023-07-09T09:03:48;27.70;99.90
7000;DHT22;3540;53.242;10.408;2023-07-09T09:06:30;28.00;99.90
7000;DHT22;3540;53.242;10.408;2023-07-09T09:09:18;28.20;99.90
7000;DHT22;3540;53.242;10.408;2023-07-09T09:12:15;28.30;99.90
7000;DHT22;3540;53.242;10.408;2023-07-09T09:14:44;28.20;99.90
7000;DHT22;3540;53.242;10.408;2023-07-09T09:17:15;28.50;99.90
7000;DHT22;3540;53.242;10.408;2023-07-09T09:22:17;28.80;99.90
7000;DHT22;3540;53.242;10.408;2023-07-09T09:27:40;29.10;99.90
7000;DHT22;3540;53.242;10.408;2023-07-09T09:30:14;29.10;99.90
7000;DHT22;3540;53.242;10.408;2023-07-09T09:33:01;29.30;99.90
7000;DHT22;3540;53.242;10.408;2023-07-09T09:35:29;29.50;99.90
7000;DHT22;3540;53.242;10.408;2023-07-09T09:37:57;29.60;99.90
7000;DHT22;3540;53.242;10.408;2023-07-09T09:40:25;29.90;99.90
7000;DHT22;3540;53.242;10.408;2023-07-09T09:42:53;30.00;99.90
7000;DHT22;3540;53.242;10.408;2023-07-09T09:45:25;30.20;99.90
7000;DHT22;3540;53.242;10.408;2023-07-09T09:47:51;30.40;99.90
7000;DHT22;3540;53.242;10.408;2023-07-09T09:50:21;30.40;99.90
7000;DHT22;3540;53.242;10.408;2023-07-09T09:52:49;30.60;99.90
7000;DHT22;3540;53.242;10.408;2023-07-09T09:55:22;30.80;99.90
7000;DHT22;3540;53.242;10.408;2023-07-09T09:57:52;30.80;99.90
7000;DHT22;3540;53.242;10.408;2023-07-09T10:00:22;30.80;99.90
7000;DHT22;3540;53.242;10.408;2023-07-09T10:02:48;30.20;99.90
7000;DHT22;3540;53.242;10.408;2023-07-09T10:05:15;30.00;99.90
7000;DHT22;3540;53.242;10.408;2023-07-09T10:10:32;29.60;99.90
7000;DHT22;3540;53.242;10.408;2023-07-09T10:16:08;29.70;99.90
7000;DHT22;3540;53.242;10.408;2023-07-09T10:18:53;29.70;99.90
7000;DHT22;3540;53.242;10.408;2023-07-09T10:21:28;29.80;99.90
7000;DHT22;3540;53.242;10.408;2023-07-09T10:26:40;30.70;99.90
7000;DHT22;3540;53.242;10.408;2023-07-09T10:32:22;31.00;99.90
7000;DHT22;3540;53.242;10.408;2023-07-09T10:38:13;31.50;99.90
7000;DHT22;3540;53.242;10.408;2023-07-09T10:40:43;31.70;99.90
7000;DHT22;3540;53.242;10.408;2023-07-09T10:43:15;31.70;99.90
7000;DHT22;3540;53.242;10.408;2023-07-09T10:45:47;32.00;99.90
7000;DHT22;3540;53.242;10.408;2023-07-09T10:51:02;31.80;99.90
7000;DHT22;3540;53.242;10.408;2023-07-09T10:53:48;31.80;99.90
7000;DHT22;3540;53.242;10.408;2023-07-09T10:56:21;31.90;99.90
7000;DHT22;3540;53.242;10.408;2023-07-09T10:59:03;32.10;99.90
7000;DHT22;3540;53.242;10.408;2023-07-09T11:01:37;32.10;99.90
7000;DHT22;3540;53.242;10.408;2023-07-09T11:04:10;32.00;99.90
7000;DHT22;3540;53.242;10.408;2023-07-09T11:06:41;31.70;99.90
7000;DHT22;3540;53.242;10.408;2023-07-09T11:09:30;31.90;99.90
7000;DHT22;3540;53.242;10.408;2023-07-09T11:12:02;32.30;99.90
7000;DHT22;3540;53.242;10.408;2023-07-09T11:14:47;31.70;99.90
7000;DHT22;3540;53.242;10.408;2023-07-09T11:17:19;31.90;99.90
7000;DHT22;3540;53.242;10.408;2023-07-09T11:19:47;32.10;99.90
7000;DHT22;3540;53.242;10.408;2023-07-09T11:25:11;32.40;99.90
7000;DHT22;3540;53.242;10.408;2023-07-09T11:27:51;32.30;99.90
7000;DHT22;3540;53.242;10.408;2023-07-09T11:30:26;32.60;99.90
7000;DHT22;3540;53.242;10.408;2023-07-09T11:33:19;32.80;99.90
7000;DHT22;3540;53.242;10.408;2023-07-09T11:35:48;32.90;99.90
7000;DHT22;3540;53.242;10.408;2023-07-09T11:38:19;33.00;99.90
7000;DHT22;3540;53.242;10.408;2023-07-09T11:40:53;33.20;99.90
7000;DHT22;3540;53.242;10.408;2023-07-09T11:43:34;33.20;99.90
7000;DHT22;3540;53.242;10.408;2023-07-09T11:46:10;33.40;99.90
7000;DHT22;3540;53.242;10.408;2023-07-09T11:48:39;33.40;99.90
7000;DHT22;3540;53.242;10.408;2023-07-09T11:51:18;33.50;99.90
7000;DHT22;3540;53.242;10.408;2023-07-09T11:53:49;33.70;99.90
7000;DHT22;3540;53.242;10.408;2023-07-09T11:56:24;33.40;99.90
7000;DHT22;3540;53.242;10.408;2023-07-09T11:58:53;33.40;99.90
7000;DHT22;3540;53.242;10.408;2023-07-09T12:01:26;33.60;99.90
7000;DHT22;3540;53.242;10.408;2023-07-09T12:03:53;33.70;99.90
7000;DHT22;3540;53.242;10.408;2023-07-09T12:06:26;33.90;99.90
7000;DHT22;3540;53.242;10.408;2023-07-09T12:08:53;34.10;99.90
7000;DHT22;3540;53.242;10.408;2023-07-09T12:11:28;34.20;99.90
7000;DHT22;3540;53.242;10.408;2023-07-09T12:14:00;34.20;99.90
7000;DHT22;3540;53.242;10.408;2023-07-09T12:16:50;34.50;99.90
7000;DHT22;3540;53.242;10.408;2023-07-09T12:19:21;34.50;99.90
7000;DHT22;3540;53.242;10.408;2023-07-09T12:21:56;34.60;99.90
7000;DHT22;3540;53.242;10.408;2023-07-09T12:24:28;34.30;99.90
7000;DHT22;3540;53.242;10.408;2023-07-09T12:26:55;33.80;99.90
7000;DHT22;3540;53.242;10.408;2023-07-09T12:29:34;33.70;99.90
7000;DHT22;3540;53.242;10.408;2023-07-09T12:32:03;34.00;99.90
7000;DHT22;3540;53.242;10.408;2023-07-09T12:34:32;33.60;99.90
7000;DHT22;3540;53.242;10.408;2023-07-09T12:36:57;33.30;99.90
7000;DHT22;3540;53.242;10.408;2023-07-09T12:39:25;33.70;99.90
7000;DHT22;3540;53.242;10.408;2023-07-09T12:41:55;34.20;99.90
7000;DHT22;3540;53.242;10.408;2023-07-09T12:44:23;34.40;99.90
7000;DHT22;3540;53.242;10.408;2023-07-09T12:46:51;34.50;99.90
7000;DHT22;3540;53.242;10.408;2023-07-09T12:49:22;34.60;99.90
7000;DHT22;3540;53.242;10.408;2023-07-09T12:51:48;34.50;99.90
7000;DHT22;3540;53.242;10.408;2023-07-09T12:54:19;35.00;99.90
7000;DHT22;3540;53.242;10.408;2023-07-09T12:56:45;34.70;99.90
7000;DHT22;3540;53.242;10.408;2023-07-09T12:59:20;34.80;99.90
7000;DHT22;3540;53.242;10.408;2023-07-09T13:04:33;34.90;99.90
7000;DHT22;3540;53.242;10.408;2023-07-09T13:07:00;35.00;99.90
7000;DHT22;3540;53.242;10.408;2023-07-09T13:09:26;34.50;99.90
7000;DHT22;3540;53.242;10.408;2023-07-09T13:11:53;34.40;99.90
7000;DHT22;3540;53.242;10.408;2023-07-09T13:14:27;34.10;99.90
7000;DHT22;3540;53.242;10.408;2023-07-09T13:17:05;33.10;99.90
7000;DHT22;3540;53.242;10.408;2023-07-09T13:19:31;33.00;99.90
7000;DHT22;3540;53.242;10.408;2023-07-09T13:21:57;33.50;99.90
7000;DHT22;3540;53.242;10.408;2023-07-09T13:24:24;34.00;99.90
7000;DHT22;3540;53.242;10.408;2023-07-09T13:26:51;34.30;99.90
7000;DHT22;3540;53.242;10.408;2023-07-09T13:29:19;34.50;99.90
7000;DHT22;3540;53.242;10.408;2023-07-09T13:31:46;33.50;99.90
7000;DHT22;3540;53.242;10.408;2023-07-09T13:34:21;33.70;99.90
7000;DHT22;3540;53.242;10.408;2023-07-09T13:36:47;34.00;99.90
7000;DHT22;3540;53.242;10.408;2023-07-09T13:39:13;34.50;99.90
7000;DHT22;3540;53.242;10.408;2023-07-09T13:41:44;34.50;99.90
7000;DHT22;3540;53.242;10.408;2023-07-09T13:44:16;33.40;99.90
7000;DHT22;3540;53.242;10.408;2023-07-09T13:46:43;33.40;99.90
7000;DHT22;3540;53.242;10.408;2023-07-09T13:49:16;34.00;99.90
7000;DHT22;3540;53.242;10.408;2023-07-09T13:51:44;34.50;99.90
7000;DHT22;3540;53.242;10.408;2023-07-09T13:54:27;34.90;99.90
7000;DHT22;3540;53.242;10.408;2023-07-09T13:56:53;35.10;99.90
7000;DHT22;3540;53.242;10.408;2023-07-09T13:59:24;35.40;99.90
7000;DHT22;3540;53.242;10.408;2023-07-09T14:01:52;35.40;99.90
7000;DHT22;3540;53.242;10.408;2023-07-09T14:04:19;35.30;99.90
7000;DHT22;3540;53.242;10.408;2023-07-09T14:06:45;35.40;99.90
7000;DHT22;3540;53.242;10.408;2023-07-09T14:09:12;35.60;99.90
7000;DHT22;3540;53.242;10.408;2023-07-09T14:11:51;35.90;99.90
7000;DHT22;3540;53.242;10.408;2023-07-09T14:14:23;36.00;99.90
7000;DHT22;3540;53.242;10.408;2023-07-09T14:16:51;35.70;99.90
7000;DHT22;3540;53.242;10.408;2023-07-09T14:19:21;35.80;99.90
7000;DHT22;3540;53.242;10.408;2023-07-09T14:21:47;35.20;99.90
7000;DHT22;3540;53.242;10.408;2023-07-09T14:24:19;35.30;99.90
7000;DHT22;3540;53.242;10.408;2023-07-09T14:26:47;35.20;99.90
7000;DHT22;3540;53.242;10.408;2023-07-09T14:29:13;35.10;99.90
7000;DHT22;3540;53.242;10.408;2023-07-09T14:31:42;35.20;99.90
7000;DHT22;3540;53.242;10.408;2023-07-09T14:34:28;35.20;99.90
7000;DHT22;3540;53.242;10.408;2023-07-09T14:36:57;35.40;99.90
7000;DHT22;3540;53.242;10.408;2023-07-09T14:39:25;35.70;99.90
7000;DHT22;3540;53.242;10.408;2023-07-09T14:41:51;34.90;99.90
7000;DHT22;3540;53.242;10.408;2023-07-09T14:44:27;35.30;99.90
7000;DHT22;3540;53.242;10.408;2023-07-09T14:46:55;35.50;99.90
7000;DHT22;3540;53.242;10.408;2023-07-09T14:49:22;35.20;99.90
7000;DHT22;3540;53.242;10.408;2023-07-09T14:51:48;34.50;99.90
7000;DHT22;3540;53.242;10.408;2023-07-09T14:54:28;33.50;99.90
7000;DHT22;3540;53.242;10.408;2023-07-09T14:56:55;33.20;99.90
7000;DHT22;3540;53.242;10.408;2023-07-09T14:59:23;33.50;99.90
7000;DHT22;3540;53.242;10.408;2023-07-09T15:01:49;33.20;99.90
7000;DHT22;3540;53.242;10.408;2023-07-09T15:06:49;34.00;99.90
7000;DHT22;3540;53.242;10.408;2023-07-09T15:09:16;34.70;99.90
7000;DHT22;3540;53.242;10.408;2023-07-09T15:11:45;35.10;99.90
7000;DHT22;3540;53.242;10.408;2023-07-09T15:14:11;35.30;99.90
7000;DHT22;3540;53.242;10.408;2023-07-09T15:16:37;34.80;99.90
7000;DHT22;3540;53.242;10.408;2023-07-09T15:19:12;34.50;99.90
7000;DHT22;3540;53.242;10.408;2023-07-09T15:21:37;34.50;99.90
7000;DHT22;3540;53.242;10.408;2023-07-09T15:24:03;35.00;99.90
7000;DHT22;3540;53.242;10.408;2023-07-09T15:26:29;35.00;99.90
7000;DHT22;3540;53.242;10.408;2023-07-09T15:28:55;34.60;99.90
7000;DHT22;3540;53.242;10.408;2023-07-09T15:31:21;34.50;99.90
7000;DHT22;3540;53.242;10.408;2023-07-09T15:33:46;34.10;99.90
7000;DHT22;3540;53.242;10.408;2023-07-09T15:36:12;33.60;99.90
7000;DHT22;3540;53.242;10.408;2023-07-09T15:38:38;34.30;99.90
7000;DHT22;3540;53.242;10.408;2023-07-09T15:41:14;34.40;99.90
7000;DHT22;3540;53.242;10.408;2023-07-09T15:43:42;34.60;99.90
7000;DHT22;3540;53.242;10.408;2023-07-09T15:46:15;34.20;99.90
7000;DHT22;3540;53.242;10.408;2023-07-09T15:48:44;34.40;99.90
7000;DHT22;3540;53.242;10.408;2023-07-09T15:51:10;34.80;99.90
7000;DHT22;3540;53.242;10.408;2023-07-09T15:53:36;35.10;99.90
7000;DHT22;3540;53.242;10.408;2023-07-09T15:56:11;34.90;99.90
7000;DHT22;3540;53.242;10.408;2023-07-09T15:58:40;35.00;99.90
7000;DHT22;3540;53.242;10.408;2023-07-09T16:01:13;35.40;99.90
7000;DHT22;3540;53.242;10.408;2023-07-09T16:03:42;34.50;99.90
7000;DHT22;3540;53.242;10.408;2023-07-09T16:06:07;34.20;99.90
7000;DHT22;3540;53.242;10.408;2023-07-09T16:08:33;34.90;99.90
7000;DHT22;3540;53.242;10.408;2023-07-09T16:10:59;35.50;99.90
7000;DHT22;3540;53.242;10.408;2023-07-09T16:13:26;34.80;99.90
7000;DHT22;3540;53.242;10.408;2023-07-09T16:15:52;35.20;99.90
7000;DHT22;3540;53.242;10.408;2023-07-09T16:18:18;35.40;99.90
7000;DHT22;3540;53.242;10.408;2023-07-09T16:20:44;35.00;99.90
7000;DHT22;3540;53.242;10.408;2023-07-09T16:23:17;34.50;99.90
7000;DHT22;3540;53.242;10.408;2023-07-09T16:25:43;34.50;99.90
7000;DHT22;3540;53.242;10.408;2023-07-09T16:28:17;34.30;99.90
7000;DHT22;3540;53.242;10.408;2023-07-09T16:30:45;34.00;99.90
7000;DHT22;3540;53.242;10.408;2023-07-09T16:33:12;34.20;99.90
7000;DHT22;3540;53.242;10.408;2023-07-09T16:35:38;34.50;99.90
7000;DHT22;3540;53.242;10.408;2023-07-09T16:38:04;33.90;99.90
7000;DHT22;3540;53.242;10.408;2023-07-09T16:40:31;34.10;99.90
7000;DHT22;3540;53.242;10.408;2023-07-09T16:42:59;34.20;99.90